sensor_id;sensor_type;location;lat;lon;timestamp;P1;durP1;ratioP1;P2;durP2;ratioP2
20772;SDS011;10546;50.674;4.616;2023-11-18T09:08:01;18.30;;;5.93;;
20772;SDS011;10546;50.674;4.616;2023-11-18T09:10:31;7.60;;;3.77;;
20772;SDS011;10546;50.674;4.616;2023-11-18T09:12:57;9.70;;;4.60;;
20772;SDS011;10546;50.674;4.616;2023-11-18T09:15:23;10.27;;;5.70;;
20772;SDS011;10546;50.674;4.616;2023-11-18T09:17:49;11.50;;;5.60;;
20772;SDS011;10546;50.674;4.616;2023-11-18T09:20:14;15.07;;;6.43;;
20772;SDS011;10546;50.674;4.616;2023-11-18T09:22:47;11.23;;;5.27;;
20772;SDS011;10546;50.674;4.616;2023-11-18T09:25:13;10.67;;;5.80;;
20772;SDS011;10546;50.674;4.616;2023-11-18T09:27:39;11.83;;;4.90;;
20772;SDS011;10546;50.674;4.616;2023-11-18T09:30:06;11.77;;;5.50;;
20772;SDS011;10546;50.674;4.616;2023-11-18T09:32:41;15.77;;;5.57;;
20772;SDS011;10546;50.674;4.616;2023-11-18T09:35:08;10.97;;;5.30;;
20772;SDS011;10546;50.674;4.616;2023-11-18T09:37:37;16.53;;;9.00;;
20772;SDS011;10546;50.674;4.616;2023-11-18T09:40:03;9.50;;;4.13;;
20772;SDS011;10546;50.674;4.616;2023-11-18T09:42:42;9.07;;;3.87;;
20772;SDS011;10546;50.674;4.616;2023-11-18T09:45:09;10.70;;;5.67;;
20772;SDS011;10546;50.674;4.616;2023-11-18T09:47:45;10.67;;;4.83;;
20772;SDS011;10546;50.674;4.616;2023-11-18T09:50:15;9.40;;;5.47;;
20772;SDS011;10546;50.674;4.616;2023-11-18T09:52:47;4.20;;;2.17;;
20772;SDS011;10546;50.674;4.616;2023-11-18T09:55:28;12.33;;;5.47;;
20772;SDS011;10546;50.674;4.616;2023-11-18T09:58:24;10.63;;;4.33;;
20772;SDS011;10546;50.674;4.616;2023-11-18T10:01:15;10.20;;;5.33;;
20772;SDS011;10546;50.674;4.616;2023-11-18T10:03:46;9.37;;;3.93;;
20772;SDS011;10546;50.674;4.616;2023-11-18T10:06:14;12.40;;;4.73;;
20772;SDS011;10546;50.674;4.616;2023-11-18T10:08:41;11.30;;;4.87;;
20772;SDS011;10546;50.674;4.616;2023-11-18T10:11:11;14.13;;;5.53;;
20772;SDS011;10546;50.674;4.616;2023-11-18T10:13:38;11.33;;;5.83;;
20772;SDS011;10546;50.674;4.616;2023-11-18T10:16:08;7.83;;;3.93;;
20772;SDS011;10546;50.674;4.616;2023-11-18T10:18:34;9.13;;;3.87;;
20772;SDS011;10546;50.674;4.616;2023-11-18T10:21:01;7.73;;;4.03;;
20772;SDS011;10546;50.674;4.616;2023-11-18T10:23:33;9.33;;;5.30;;
20772;SDS011;10546;50.674;4.616;2023-11-18T10:25:59;7.70;;;3.80;;
20772;SDS011;10546;50.674;4.616;2023-11-18T10:30:58;10.57;;;4.77;;
20772;SDS011;10546;50.674;4.616;2023-11-18T10:33:32;7.03;;;3.80;;
20772;SDS011;10546;50.674;4.616;2023-11-18T10:36:01;10.97;;;4.50;;
20772;SDS011;10546;50.674;4.616;2023-11-18T10:38:32;7.20;;;3.10;;
20772;SDS011;10546;50.674;4.616;2023-11-18T10:41:04;6.10;;;3.03;;
20772;SDS011;10546;50.674;4.616;2023-11-18T10:43:31;23.77;;;4.50;;
20772;SDS011;10546;50.674;4.616;2023-11-18T10:46:10;9.03;;;3.53;;
20772;SDS011;10546;50.674;4.616;2023-11-18T10:48:45;7.83;;;4.47;;
20772;SDS011;10546;50.674;4.616;2023-11-18T10:51:13;7.53;;;3.17;;
20772;SDS011;10546;50.674;4.616;2023-11-18T10:53:43;7.00;;;3.80;;
20772;SDS011;10546;50.674;4.616;2023-11-18T10:56:23;2.37;;;1.60;;
20772;SDS011;10546;50.674;4.616;2023-11-18T10:58:52;7.27;;;4.17;;
20772;SDS011;10546;50.674;4.616;2023-11-18T11:01:28;4.90;;;2.60;;
20772;SDS011;10546;50.674;4.616;2023-11-18T11:03:54;3.23;;;2.00;;
20772;SDS011;10546;50.674;4.616;2023-11-18T11:06:26;3.83;;;2.57;;
20772;SDS011;10546;50.674;4.616;2023-11-18T11:08:55;6.73;;;2.60;;
20772;SDS011;10546;50.674;4.616;2023-11-18T11:11:32;6.10;;;3.00;;
20772;SDS011;10546;50.674;4.616;2023-11-18T11:14:04;6.53;;;2.80;;
20772;SDS011;10546;50.674;4.616;2023-11-18T11:16:38;5.07;;;2.57;;
20772;SDS011;10546;50.674;4.616;2023-11-18T11:19:08;4.40;;;2.70;;
20772;SDS011;10546;50.674;4.616;2023-11-18T11:21:49;4.03;;;2.63;;
20772;SDS011;10546;50.674;4.616;2023-11-18T11:24:23;2.63;;;1.97;;
20772;SDS011;10546;50.674;4.616;2023-11-18T11:30:08;6.37;;;2.20;;
20772;SDS011;10546;50.674;4.616;2023-11-18T11:32:53;4.27;;;1.40;;
20772;SDS011;10546;50.674;4.616;2023-11-18T11:35:31;6.50;;;2.60;;
20772;SDS011;10546;50.674;4.616;2023-11-18T11:38:03;3.10;;;2.03;;
20772;SDS011;10546;50.674;4.616;2023-11-18T11:40:35;2.00;;;1.00;;
20772;SDS011;10546;50.674;4.616;2023-11-18T11:43:03;2.50;;;1.30;;
20772;SDS011;10546;50.674;4.616;2023-11-18T11:45:34;3.63;;;1.60;;
20772;SDS011;10546;50.674;4.616;2023-11-18T11:48:00;2.10;;;1.90;;
20772;SDS011;10546;50.674;4.616;2023-11-18T11:56:43;6.60;;;1.63;;
20772;SDS011;10546;50.674;4.616;2023-11-18T12:02:17;1.47;;;1.13;;
20772;SDS011;10546;50.674;4.616;2023-11-18T12:04:45;2.13;;;1.53;;
20772;SDS011;10546;50.674;4.616;2023-11-18T12:07:17;1.20;;;1.10;;
20772;SDS011;10546;50.674;4.616;2023-11-18T12:09:44;1.37;;;1.20;;
20772;SDS011;10546;50.674;4.616;2023-11-18T12:12:19;1.90;;;0.90;;
20772;SDS011;10546;50.674;4.616;2023-11-18T12:14:52;4.63;;;1.90;;
20772;SDS011;10546;50.674;4.616;2023-11-18T12:17:21;3.70;;;2.30;;
20772;SDS011;10546;50.674;4.616;2023-11-18T12:19:48;1.90;;;1.37;;
20772;SDS011;10546;50.674;4.616;2023-11-18T12:22:15;1.53;;;1.43;;
20772;SDS011;10546;50.674;4.616;2023-11-18T12:27:41;3.00;;;1.47;;
20772;SDS011;10546;50.674;4.616;2023-11-18T12:35:32;0.73;;;0.70;;
20772;SDS011;10546;50.674;4.616;2023-11-18T12:40:56;3.53;;;1.50;;
20772;SDS011;10546;50.674;4.616;2023-11-18T12:46:41;1.67;;;0.80;;
20772;SDS011;10546;50.674;4.616;2023-11-18T12:49:14;1.17;;;1.03;;
20772;SDS011;10546;50.674;4.616;2023-11-18T12:51:49;1.37;;;1.13;;
20772;SDS011;10546;50.674;4.616;2023-11-18T12:54:21;3.00;;;0.90;;
20772;SDS011;10546;50.674;4.616;2023-11-18T12:56:50;1.30;;;1.00;;
20772;SDS011;10546;50.674;4.616;2023-11-18T12:59:18;6.07;;;1.10;;
20772;SDS011;10546;50.674;4.616;2023-11-18T13:01:51;1.27;;;1.13;;
20772;SDS011;10546;50.674;4.616;2023-11-18T13:04:18;1.77;;;1.33;;
20772;SDS011;10546;50.674;4.616;2023-11-18T13:06:47;2.50;;;1.90;;
20772;SDS011;10546;50.674;4.616;2023-11-18T13:09:14;1.40;;;1.30;;
20772;SDS011;10546;50.674;4.616;2023-11-18T13:11:51;1.37;;;1.13;;
20772;SDS011;10546;50.674;4.616;2023-11-18T13:14:26;1.90;;;1.50;;
20772;SDS011;10546;50.674;4.616;2023-11-18T13:16:53;4.03;;;1.90;;
20772;SDS011;10546;50.674;4.616;2023-11-18T13:19:28;4.17;;;2.07;;
20772;SDS011;10546;50.674;4.616;2023-11-18T13:21:58;2.87;;;1.83;;
20772;SDS011;10546;50.674;4.616;2023-11-18T13:24:25;1.10;;;1.00;;
20772;SDS011;10546;50.674;4.616;2023-11-18T13:26:54;0.97;;;0.80;;
20772;SDS011;10546;50.674;4.616;2023-11-18T13:29:22;0.70;;;0.70;;
20772;SDS011;10546;50.674;4.616;2023-11-18T13:31:49;2.00;;;1.03;;
20772;SDS011;10546;50.674;4.616;2023-11-18T13:34:18;1.20;;;1.00;;
20772;SDS011;10546;50.674;4.616;2023-11-18T13:36:45;1.23;;;1.03;;
20772;SDS011;10546;50.674;4.616;2023-11-18T13:39:17;1.00;;;0.90;;
20772;SDS011;10546;50.674;4.616;2023-11-18T13:41:44;1.90;;;1.33;;
20772;SDS011;10546;50.674;4.616;2023-11-18T13:44:31;4.17;;;1.40;;
20772;SDS011;10546;50.674;4.616;2023-11-18T13:47:10;2.50;;;1.30;;
20772;SDS011;10546;50.674;4.616;2023-11-18T13:49:39;1.03;;;0.93;;
20772;SDS011;10546;50.674;4.616;2023-11-18T13:52:06;1.17;;;0.90;;
20772;SDS011;10546;50.674;4.616;2023-11-18T13:54:34;0.97;;;0.80;;
20772;SDS011;10546;50.674;4.616;2023-11-18T13:57:00;1.80;;;1.50;;
20772;SDS011;10546;50.674;4.616;2023-11-18T13:59:28;3.63;;;1.73;;
20772;SDS011;10546;50.674;4.616;2023-11-18T14:01:54;2.20;;;1.40;;
20772;SDS011;10546;50.674;4.616;2023-11-18T14:04:28;2.73;;;1.40;;
20772;SDS011;10546;50.674;4.616;2023-11-18T14:06:58;2.00;;;1.23;;
20772;SDS011;10546;50.674;4.616;2023-11-18T14:09:34;2.60;;;1.23;;
20772;SDS011;10546;50.674;4.616;2023-11-18T14:12:07;2.30;;;1.50;;
20772;SDS011;10546;50.674;4.616;2023-11-18T14:14:33;1.43;;;0.90;;
20772;SDS011;10546;50.674;4.616;2023-11-18T14:16:59;1.33;;;1.10;;
20772;SDS011;10546;50.674;4.616;2023-11-18T14:19:26;1.37;;;1.17;;
20772;SDS011;10546;50.674;4.616;2023-11-18T14:21:54;2.93;;;1.30;;
20772;SDS011;10546;50.674;4.616;2023-11-18T14:24:20;2.60;;;1.07;;
20772;SDS011;10546;50.674;4.616;2023-11-18T14:26:55;1.13;;;1.00;;
20772;SDS011;10546;50.674;4.616;2023-11-18T14:29:21;1.73;;;1.20;;
20772;SDS011;10546;50.674;4.616;2023-11-18T14:31:48;2.40;;;1.20;;
20772;SDS011;10546;50.674;4.616;2023-11-18T14:34:13;0.70;;;0.70;;
20772;SDS011;10546;50.674;4.616;2023-11-18T14:36:39;1.03;;;0.80;;
20772;SDS011;10546;50.674;4.616;2023-11-18T14:39:06;1.43;;;1.00;;
20772;SDS011;10546;50.674;4.616;2023-11-18T14:41:37;0.80;;;0.80;;
20772;SDS011;10546;50.674;4.616;2023-11-18T14:44:02;2.53;;;1.87;;
20772;SDS011;10546;50.674;4.616;2023-11-18T14:46:30;3.00;;;2.43;;
20772;SDS011;10546;50.674;4.616;2023-11-18T14:48:59;1.27;;;1.17;;
20772;SDS011;10546;50.674;4.616;2023-11-18T14:51:24;2.57;;;0.90;;
20772;SDS011;10546;50.674;4.616;2023-11-18T14:53:51;1.50;;;1.30;;
20772;SDS011;10546;50.674;4.616;2023-11-18T14:56:17;2.17;;;1.20;;
20772;SDS011;10546;50.674;4.616;2023-11-18T14:58:43;0.90;;;0.60;;
20772;SDS011;10546;50.674;4.616;2023-11-18T15:01:11;1.73;;;1.10;;
20772;SDS011;10546;50.674;4.616;2023-11-18T15:03:37;1.60;;;1.40;;
20772;SDS011;10546;50.674;4.616;2023-11-18T15:06:02;1.03;;;0.87;;
20772;SDS011;10546;50.674;4.616;2023-11-18T15:08:31;2.30;;;1.43;;
20772;SDS011;10546;50.674;4.616;2023-11-18T15:10:56;1.53;;;1.07;;
20772;SDS011;10546;50.674;4.616;2023-11-18T15:13:27;1.20;;;1.10;;
20772;SDS011;10546;50.674;4.616;2023-11-18T15:15:52;2.07;;;1.20;;
20772;SDS011;10546;50.674;4.616;2023-11-18T15:18:18;1.37;;;1.23;;
20772;SDS011;10546;50.674;4.616;2023-11-18T15:20:44;1.30;;;0.90;;
20772;SDS011;10546;50.674;4.616;2023-11-18T15:23:11;2.37;;;1.30;;
20772;SDS011;10546;50.674;4.616;2023-11-18T15:25:38;1.83;;;1.40;;
20772;SDS011;10546;50.674;4.616;2023-11-18T15:28:05;3.03;;;1.77;;
20772;SDS011;10546;50.674;4.616;2023-11-18T15:30:38;2.70;;;1.83;;
20772;SDS011;10546;50.674;4.616;2023-11-18T15:33:05;2.37;;;1.60;;
20772;SDS011;10546;50.674;4.616;2023-11-18T15:35:33;1.03;;;0.90;;
20772;SDS011;10546;50.674;4.616;2023-11-18T15:38:03;1.90;;;1.57;;
20772;SDS011;10546;50.674;4.616;2023-11-18T15:40:30;2.00;;;1.40;;
20772;SDS011;10546;50.674;4.616;2023-11-18T15:42:56;2.03;;;1.30;;
20772;SDS011;10546;50.674;4.616;2023-11-18T15:45:22;3.57;;;1.67;;
20772;SDS011;10546;50.674;4.616;2023-11-18T15:47:49;2.97;;;2.00;;
20772;SDS011;10546;50.674;4.616;2023-11-18T15:50:16;2.30;;;1.60;;
20772;SDS011;10546;50.674;4.616;2023-11-18T15:52:42;4.03;;;1.80;;
20772;SDS011;10546;50.674;4.616;2023-11-18T15:55:08;5.30;;;2.33;;
20772;SDS011;10546;50.674;4.616;2023-11-18T15:57:38;4.00;;;2.17;;
20772;SDS011;10546;50.674;4.616;2023-11-18T16:00:09;3.50;;;2.37;;
20772;SDS011;10546;50.674;4.616;2023-11-18T16:02:42;7.03;;;3.83;;
20772;SDS011;10546;50.674;4.616;2023-11-18T16:05:10;3.47;;;2.17;;
20772;SDS011;10546;50.674;4.616;2023-11-18T16:07:38;3.00;;;1.37;;
20772;SDS011;10546;50.674;4.616;2023-11-18T16:10:05;4.90;;;2.20;;
20772;SDS011;10546;50.674;4.616;2023-11-18T16:12:32;4.43;;;3.20;;
20772;SDS011;10546;50.674;4.616;2023-11-18T16:14:57;3.93;;;2.40;;
20772;SDS011;10546;50.674;4.616;2023-11-18T16:17:23;5.70;;;3.50;;
20772;SDS011;10546;50.674;4.616;2023-11-18T16:19:49;6.80;;;2.77;;
20772;SDS011;10546;50.674;4.616;2023-11-18T16:22:14;5.83;;;2.70;;
20772;SDS011;10546;50.674;4.616;2023-11-18T16:24:40;8.53;;;3.50;;
20772;SDS011;10546;50.674;4.616;2023-11-18T16:27:06;5.63;;;4.00;;
20772;SDS011;10546;50.674;4.616;2023-11-18T16:29:32;7.03;;;4.10;;
20772;SDS011;10546;50.674;4.616;2023-11-18T16:31:57;4.67;;;3.10;;
20772;SDS011;10546;50.674;4.616;2023-11-18T16:34:23;3.90;;;2.50;;
20772;SDS011;10546;50.674;4.616;2023-11-18T16:36:50;7.57;;;3.67;;
20772;SDS011;10546;50.674;4.616;2023-11-18T16:39:21;3.40;;;2.07;;
20772;SDS011;10546;50.674;4.616;2023-11-18T16:41:47;3.50;;;2.23;;
20772;SDS011;10546;50.674;4.616;2023-11-18T16:44:13;3.90;;;2.37;;
20772;SDS011;10546;50.674;4.616;2023-11-18T16:46:40;5.00;;;2.93;;
20772;SDS011;10546;50.674;4.616;2023-11-18T16:49:06;3.47;;;1.87;;
20772;SDS011;10546;50.674;4.616;2023-11-18T16:51:33;4.63;;;3.23;;
20772;SDS011;10546;50.674;4.616;2023-11-18T16:54:00;8.87;;;5.70;;
20772;SDS011;10546;50.674;4.616;2023-11-18T16:56:26;6.67;;;5.10;;
20772;SDS011;10546;50.674;4.616;2023-11-18T16:58:53;3.33;;;2.40;;
20772;SDS011;10546;50.674;4.616;2023-11-18T17:01:19;6.03;;;4.20;;
20772;SDS011;10546;50.674;4.616;2023-11-18T17:03:49;8.97;;;5.10;;
20772;SDS011;10546;50.674;4.616;2023-11-18T17:06:15;7.53;;;4.40;;
20772;SDS011;10546;50.674;4.616;2023-11-18T17:08:42;6.97;;;4.90;;
20772;SDS011;10546;50.674;4.616;2023-11-18T17:11:08;11.40;;;7.90;;
20772;SDS011;10546;50.674;4.616;2023-11-18T17:13:34;7.87;;;4.93;;
20772;SDS011;10546;50.674;4.616;2023-11-18T17:16:00;12.07;;;8.03;;
20772;SDS011;10546;50.674;4.616;2023-11-18T17:18:25;12.67;;;9.30;;
20772;SDS011;10546;50.674;4.616;2023-11-18T17:20:51;13.23;;;8.37;;
20772;SDS011;10546;50.674;4.616;2023-11-18T17:23:17;13.93;;;9.83;;
20772;SDS011;10546;50.674;4.616;2023-11-18T17:25:43;34.47;;;21.30;;
20772;SDS011;10546;50.674;4.616;2023-11-18T17:28:09;10.10;;;5.43;;
20772;SDS011;10546;50.674;4.616;2023-11-18T17:30:35;8.13;;;6.30;;
20772;SDS011;10546;50.674;4.616;2023-11-18T17:33:02;6.23;;;4.93;;
20772;SDS011;10546;50.674;4.616;2023-11-18T17:35:28;11.57;;;7.63;;
20772;SDS011;10546;50.674;4.616;2023-11-18T17:37:55;7.27;;;5.37;;
20772;SDS011;10546;50.674;4.616;2023-11-18T17:40:21;7.10;;;4.83;;
20772;SDS011;10546;50.674;4.616;2023-11-18T17:42:48;6.50;;;4.17;;
20772;SDS011;10546;50.674;4.616;2023-11-18T17:45:15;4.90;;;4.03;;
20772;SDS011;10546;50.674;4.616;2023-11-18T17:47:42;7.23;;;4.40;;
20772;SDS011;10546;50.674;4.616;2023-11-18T17:50:09;4.97;;;3.63;;
20772;SDS011;10546;50.674;4.616;2023-11-18T17:52:40;4.60;;;3.60;;
20772;SDS011;10546;50.674;4.616;2023-11-18T17:55:09;7.03;;;4.03;;
20772;SDS011;10546;50.674;4.616;2023-11-18T17:57:35;2.43;;;2.03;;
20772;SDS011;10546;50.674;4.616;2023-11-18T18:00:00;4.90;;;2.30;;
20772;SDS011;10546;50.674;4.616;2023-11-18T18:02:26;4.40;;;3.53;;
20772;SDS011;10546;50.674;4.616;2023-11-18T18:04:52;4.90;;;3.50;;
20772;SDS011;10546;50.674;4.616;2023-11-18T18:07:17;4.23;;;3.40;;
20772;SDS011;10546;50.674;4.616;2023-11-18T18:09:43;4.40;;;3.20;;
20772;SDS011;10546;50.674;4.616;2023-11-18T18:12:12;6.07;;;4.07;;
20772;SDS011;10546;50.674;4.616;2023-11-18T18:14:38;4.60;;;3.50;;
20772;SDS011;10546;50.674;4.616;2023-11-18T18:17:07;4.47;;;3.07;;
20772;SDS011;10546;50.674;4.616;2023-11-18T18:19:33;3.13;;;2.17;;
20772;SDS011;10546;50.674;4.616;2023-11-18T18:22:01;4.17;;;2.80;;
20772;SDS011;10546;50.674;4.616;2023-11-18T18:24:28;4.87;;;2.77;;
20772;SDS011;10546;50.674;4.616;2023-11-18T18:26:54;15.97;;;9.07;;
20772;SDS011;10546;50.674;4.616;2023-11-18T18:29:19;8.07;;;5.20;;
20772;SDS011;10546;50.674;4.616;2023-11-18T18:31:47;5.03;;;3.30;;
20772;SDS011;10546;50.674;4.616;2023-11-18T18:34:12;10.40;;;6.07;;
20772;SDS011;10546;50.674;4.616;2023-11-18T18:36:38;7.40;;;4.73;;
20772;SDS011;10546;50.674;4.616;2023-11-18T18:39:06;8.43;;;4.67;;
20772;SDS011;10546;50.674;4.616;2023-11-18T18:41:36;7.03;;;4.93;;
20772;SDS011;10546;50.674;4.616;2023-11-18T18:44:12;6.67;;;4.50;;
20772;SDS011;10546;50.674;4.616;2023-11-18T18:46:39;7.03;;;3.57;;
20772;SDS011;10546;50.674;4.616;2023-11-18T18:49:05;5.73;;;4.40;;
20772;SDS011;10546;50.674;4.616;2023-11-18T18:51:34;5.83;;;3.80;;
20772;SDS011;10546;50.674;4.616;2023-11-18T18:54:03;4.63;;;3.40;;
20772;SDS011;10546;50.674;4.616;2023-11-18T18:56:31;8.10;;;3.57;;
20772;SDS011;10546;50.674;4.616;2023-11-18T18:58:56;11.80;;;5.00;;
20772;SDS011;10546;50.674;4.616;2023-11-18T19:01:24;6.80;;;3.60;;
20772;SDS011;10546;50.674;4.616;2023-11-18T19:03:51;4.93;;;3.97;;
20772;SDS011;10546;50.674;4.616;2023-11-18T19:06:17;7.53;;;4.30;;
20772;SDS011;10546;50.674;4.616;2023-11-18T19:08:43;5.17;;;3.93;;
20772;SDS011;10546;50.674;4.616;2023-11-18T19:11:09;4.30;;;3.23;;
20772;SDS011;10546;50.674;4.616;2023-11-18T19:13:35;8.23;;;5.67;;
20772;SDS011;10546;50.674;4.616;2023-11-18T19:16:01;6.43;;;4.67;;
20772;SDS011;10546;50.674;4.616;2023-11-18T19:18:27;5.40;;;3.43;;
20772;SDS011;10546;50.674;4.616;2023-11-18T19:20:52;7.03;;;3.60;;
20772;SDS011;10546;50.674;4.616;2023-11-18T19:23:18;6.53;;;4.17;;
20772;SDS011;10546;50.674;4.616;2023-11-18T19:25:44;6.33;;;3.70;;
20772;SDS011;10546;50.674;4.616;2023-11-18T19:28:10;10.93;;;4.80;;
20772;SDS011;10546;50.674;4.616;2023-11-18T19:30:36;8.10;;;5.23;;
20772;SDS011;10546;50.674;4.616;2023-11-18T19:33:02;6.40;;;4.73;;
20772;SDS011;10546;50.674;4.616;2023-11-18T19:35:28;8.93;;;5.60;;
20772;SDS011;10546;50.674;4.616;2023-11-18T19:37:59;7.63;;;5.13;;
20772;SDS011;10546;50.674;4.616;2023-11-18T19:40:25;8.27;;;6.93;;
20772;SDS011;10546;50.674;4.616;2023-11-18T19:42:52;7.73;;;5.63;;
20772;SDS011;10546;50.674;4.616;2023-11-18T19:45:18;5.73;;;4.80;;
20772;SDS011;10546;50.674;4.616;2023-11-18T19:47:44;4.97;;;2.73;;
20772;SDS011;10546;50.674;4.616;2023-11-18T19:50:10;5.63;;;4.07;;
20772;SDS011;10546;50.674;4.616;2023-11-18T19:52:37;3.83;;;2.10;;
20772;SDS011;10546;50.674;4.616;2023-11-18T19:55:03;5.33;;;4.23;;
20772;SDS011;10546;50.674;4.616;2023-11-18T19:57:29;9.07;;;4.90;;
20772;SDS011;10546;50.674;4.616;2023-11-18T19:59:56;6.70;;;5.20;;
20772;SDS011;10546;50.674;4.616;2023-11-18T20:02:24;7.37;;;4.60;;
20772;SDS011;10546;50.674;4.616;2023-11-18T20:04:49;5.83;;;4.70;;
20772;SDS011;10546;50.674;4.616;2023-11-18T20:07:15;6.43;;;3.87;;
20772;SDS011;10546;50.674;4.616;2023-11-18T20:09:43;8.83;;;5.53;;
20772;SDS011;10546;50.674;4.616;2023-11-18T20:12:09;9.10;;;6.33;;
20772;SDS011;10546;50.674;4.616;2023-11-18T20:14:35;7.30;;;4.90;;
20772;SDS011;10546;50.674;4.616;2023-11-18T20:17:01;9.00;;;5.67;;
20772;SDS011;10546;50.674;4.616;2023-11-18T20:19:27;7.40;;;5.83;;
20772;SDS011;10546;50.674;4.616;2023-11-18T20:21:53;11.00;;;5.77;;
20772;SDS011;10546;50.674;4.616;2023-11-18T20:24:21;8.53;;;6.30;;
20772;SDS011;10546;50.674;4.616;2023-11-18T20:26:47;9.53;;;5.93;;
20772;SDS011;10546;50.674;4.616;2023-11-18T20:29:16;6.93;;;5.37;;
20772;SDS011;10546;50.674;4.616;2023-11-18T20:31:43;7.70;;;6.17;;
20772;SDS011;10546;50.674;4.616;2023-11-18T20:34:11;11.80;;;7.47;;
20772;SDS011;10546;50.674;4.616;2023-11-18T20:36:38;9.43;;;6.47;;
20772;SDS011;10546;50.674;4.616;2023-11-18T20:39:05;8.40;;;5.87;;
20772;SDS011;10546;50.674;4.616;2023-11-18T20:41:32;8.90;;;6.13;;
20772;SDS011;10546;50.674;4.616;2023-11-18T20:43:58;10.83;;;4.27;;
20772;SDS011;10546;50.674;4.616;2023-11-18T20:46:25;6.37;;;5.03;;
20772;SDS011;10546;50.674;4.616;2023-11-18T20:48:51;9.80;;;5.63;;
20772;SDS011;10546;50.674;4.616;2023-11-18T20:51:16;9.57;;;5.53;;
20772;SDS011;10546;50.674;4.616;2023-11-18T20:53:42;7.40;;;5.67;;
20772;SDS011;10546;50.674;4.616;2023-11-18T20:56:09;7.43;;;5.00;;
20772;SDS011;10546;50.674;4.616;2023-11-18T20:58:34;8.83;;;6.20;;
20772;SDS011;10546;50.674;4.616;2023-11-18T21:01:00;11.43;;;5.73;;
20772;SDS011;10546;50.674;4.616;2023-11-18T21:03:26;9.77;;;6.60;;
20772;SDS011;10546;50.674;4.616;2023-11-18T21:05:53;7.00;;;4.87;;
20772;SDS011;10546;50.674;4.616;2023-11-18T21:08:19;7.37;;;4.23;;
20772;SDS011;10546;50.674;4.616;2023-11-18T21:10:45;5.43;;;3.97;;
20772;SDS011;10546;50.674;4.616;2023-11-18T21:13:13;6.67;;;4.73;;
20772;SDS011;10546;50.674;4.616;2023-11-18T21:15:39;11.40;;;5.07;;
20772;SDS011;10546;50.674;4.616;2023-11-18T21:18:06;7.67;;;4.90;;
20772;SDS011;10546;50.674;4.616;2023-11-18T21:20:42;5.60;;;4.70;;
20772;SDS011;10546;50.674;4.616;2023-11-18T21:23:07;7.37;;;4.60;;
20772;SDS011;10546;50.674;4.616;2023-11-18T21:25:33;6.20;;;4.20;;
20772;SDS011;10546;50.674;4.616;2023-11-18T21:28:00;7.47;;;4.27;;
20772;SDS011;10546;50.674;4.616;2023-11-18T21:30:30;7.40;;;3.13;;
20772;SDS011;10546;50.674;4.616;2023-11-18T21:32:57;7.00;;;4.57;;
20772;SDS011;10546;50.674;4.616;2023-11-18T21:35:24;8.80;;;5.73;;
20772;SDS011;10546;50.674;4.616;2023-11-18T21:37:50;8.10;;;5.43;;
20772;SDS011;10546;50.674;4.616;2023-11-18T21:40:17;8.38;;;6.00;;
20772;SDS011;10546;50.674;4.616;2023-11-18T21:42:51;8.40;;;5.70;;
20772;SDS011;10546;50.674;4.616;2023-11-18T21:45:18;6.10;;;4.33;;
20772;SDS011;10546;50.674;4.616;2023-11-18T21:47:48;8.13;;;5.50;;
20772;SDS011;10546;50.674;4.616;2023-11-18T21:50:19;8.90;;;5.60;;
20772;SDS011;10546;50.674;4.616;2023-11-18T21:52:45;9.47;;;6.20;;
20772;SDS011;10546;50.674;4.616;2023-11-18T21:55:11;14.05;;;10.02;;
20772;SDS011;10546;50.674;4.616;2023-11-18T21:57:38;10.77;;;5.50;;
20772;SDS011;10546;50.674;4.616;2023-11-18T22:00:04;11.17;;;6.33;;
20772;SDS011;10546;50.674;4.616;2023-11-18T22:02:39;10.20;;;6.23;;
20772;SDS011;10546;50.674;4.616;2023-11-18T22:05:06;7.70;;;5.40;;
20772;SDS011;10546;50.674;4.616;2023-11-18T22:07:35;13.20;;;6.93;;
20772;SDS011;10546;50.674;4.616;2023-11-18T22:10:08;11.17;;;6.93;;
20772;SDS011;10546;50.674;4.616;2023-11-18T22:12:38;10.20;;;6.55;;
20772;SDS011;10546;50.674;4.616;2023-11-18T22:15:07;11.87;;;7.10;;
20772;SDS011;10546;50.674;4.616;2023-11-18T22:17:33;9.65;;;7.03;;
20772;SDS011;10546;50.674;4.616;2023-11-18T22:20:00;10.25;;;6.82;;
20772;SDS011;10546;50.674;4.616;2023-11-18T22:22:26;9.43;;;5.70;;
20772;SDS011;10546;50.674;4.616;2023-11-18T22:24:51;10.52;;;6.13;;
20772;SDS011;10546;50.674;4.616;2023-11-18T22:27:17;9.30;;;6.60;;
20772;SDS011;10546;50.674;4.616;2023-11-18T22:29:43;9.10;;;7.03;;
20772;SDS011;10546;50.674;4.616;2023-11-18T22:32:14;11.57;;;7.15;;
20772;SDS011;10546;50.674;4.616;2023-11-18T22:34:42;8.50;;;5.13;;
20772;SDS011;10546;50.674;4.616;2023-11-18T22:37:08;11.03;;;6.73;;
20772;SDS011;10546;50.674;4.616;2023-11-18T22:39:34;7.88;;;5.78;;
20772;SDS011;10546;50.674;4.616;2023-11-18T22:42:05;9.27;;;5.72;;
20772;SDS011;10546;50.674;4.616;2023-11-18T22:44:31;10.67;;;5.27;;
